Time;durP1;ratioP1;P1;durP2;ratioP2;P2;SDS_P1;SDS_P2;PMS_P1;PMS_P2;Temp;Humidity;BMP_temperature;BMP_pressure;BME280_temperature;BME280_humidity;BME280_pressure;Samples;Min_cycle;Max_cycle;Signal;HPM_P1;HPM_P2
2024/01/02 12:23:19;;;;;;;2.95;2.10;;;;;;;;;;5112412;27;20110;-71
2024/01/02 12:27:07;;;;;;;5.75;2.10;;;;;;;;;;5115816;27;20046;-71
2024/01/02 14:00:12;;;;;;;5.53;2.88;;;;;;;;;;5126497;27;20042;-68
2024/01/02 14:02:47;;;;;;;3.90;2.13;;;;;;;;;;5124427;27;20043;-68
2024/01/02 14:06:07;;;;;;;5.97;2.33;;;;;;;;;;5124271;27;20047;-69
2024/01/02 14:08:42;;;;;;;5.82;2.75;;;;;;;;;;5127087;27;20085;-69
2024/01/02 14:11:30;;;;;;;6.03;2.70;;;;;;;;;;5124785;27;20483;-69
2024/01/02 14:14:34;;;;;;;5.32;2.83;;;;;;;;;;5124838;27;20047;-71
2024/01/02 14:48:59;;;;;;;4.05;2.53;;;;;;;;;;5114743;27;20073;-76
2024/01/02 14:51:33;;;;;;;4.28;3.00;;;;;;;;;;5110761;27;20050;-73
2024/01/02 14:54:24;;;;;;;4.88;2.83;;;;;;;;;;5107190;27;20047;-70
2024/01/02 14:57:05;;;;;;;3.92;2.70;;;;;;;;;;5104759;28;20134;-75
2024/01/02 14:59:58;;;;;;;2.92;2.22;;;;;;;;;;5107230;28;20039;-75
2024/01/02 15:02:48;;;;;;;4.38;3.28;;;;;;;;;;5108190;27;20047;-74
2024/01/02 15:05:34;;;;;;;4.15;2.95;;;;;;;;;;5109265;27;20655;-72
2024/01/02 15:08:17;;;;;;;5.47;3.25;;;;;;;;;;5108473;28;20515;-75
2024/01/02 15:11:09;;;;;;;3.78;2.63;;;;;;;;;;5107887;28;20824;-70
2024/01/02 15:13:49;;;;;;;5.05;2.65;;;;;;;;;;5108802;28;20063;-72
2024/01/02 15:16:28;;;;;;;4.30;2.60;;;;;;;;;;5121951;27;20389;-70
2024/01/02 15:19:01;;;;;;;4.07;2.35;;;;;;;;;;5110716;27;20091;-70
2024/01/02 15:21:40;;;;;;;6.28;3.58;;;;;;;;;;5110787;27;20047;-73
2024/01/02 15:24:30;;;;;;;6.47;3.05;;;;;;;;;;5106590;28;20059;-69
2024/01/02 15:27:08;;;;;;;6.47;3.55;;;;;;;;;;5107119;28;20051;-78
2024/01/02 15:29:45;;;;;;;5.82;3.40;;;;;;;;;;5107306;28;20062;-79
2024/01/02 15:32:23;;;;;;;5.75;3.70;;;;;;;;;;5110175;27;20050;-78
2024/01/02 15:34:59;;;;;;;6.43;3.83;;;;;;;;;;5113053;27;20090;-75
2024/01/02 15:37:38;;;;;;;7.38;3.00;;;;;;;;;;5113101;27;20083;-73
2024/01/02 15:40:10;;;;;;;6.90;4.53;;;;;;;;;;5124588;27;20058;-75
2024/01/02 15:42:52;;;;;;;6.95;3.20;;;;;;;;;;5107810;28;20051;-72
2024/01/02 15:45:32;;;;;;;4.68;3.10;;;;;;;;;;5110545;28;20138;-79
2024/01/02 15:48:22;;;;;;;6.20;2.97;;;;;;;;;;5106327;28;20047;-77
2024/01/02 15:51:20;;;;;;;7.05;3.88;;;;;;;;;;5108386;28;20124;-76
2024/01/02 15:54:00;;;;;;;7.10;4.18;;;;;;;;;;5106821;28;20715;-75
2024/01/02 15:56:35;;;;;;;5.47;3.60;;;;;;;;;;5107856;28;20079;-77
2024/01/02 15:59:19;;;;;;;6.97;3.58;;;;;;;;;;5107645;28;20056;-74
2024/01/02 16:01:49;;;;;;;;;;;;;;;;;;5114204;28;20121;-75
2024/01/02 16:04:27;;;;;;;6.20;4.25;;;;;;;;;;5107126;28;19974;-77
2024/01/02 16:07:28;;;;;;;6.43;4.38;;;;;;;;;;5110953;27;20051;-73
2024/01/02 16:10:17;;;;;;;5.53;4.03;;;;;;;;;;5129477;27;20058;-77
2024/01/02 16:12:51;;;;;;;9.05;4.30;;;;;;;;;;5116510;27;20046;-74
2024/01/02 16:15:50;;;;;;;8.63;5.07;;;;;;;;;;5117120;27;20052;-75
2024/01/02 16:18:41;;;;;;;7.50;4.45;;;;;;;;;;5119996;27;20646;-74
2024/01/02 16:21:21;;;;;;;6.60;3.92;;;;;;;;;;5091099;28;20050;-72
2024/01/02 16:24:00;;;;;;;6.45;4.30;;;;;;;;;;5090870;28;20044;-76
2024/01/02 16:26:38;;;;;;;5.85;4.38;;;;;;;;;;5090891;28;20056;-74
2024/01/02 16:29:14;;;;;;;8.15;4.38;;;;;;;;;;5076143;28;20517;-75
2024/01/02 16:32:05;;;;;;;7.78;5.10;;;;;;;;;;5089220;28;20512;-73
2024/01/02 16:34:47;;;;;;;9.02;4.93;;;;;;;;;;5074713;28;20637;-74
2024/01/02 16:37:21;;;;;;;9.50;5.43;;;;;;;;;;5093053;28;20071;-72
2024/01/02 16:39:55;;;;;;;7.13;5.05;;;;;;;;;;5097474;28;20538;-76
2024/01/02 16:42:28;;;;;;;6.88;5.10;;;;;;;;;;5105823;28;20048;-78
2024/01/02 16:45:45;;;;;;;7.95;5.43;;;;;;;;;;5097531;28;20153;-75
2024/01/02 17:09:54;;;;;;;9.93;5.72;;;;;;;;;;5105907;28;20043;-72
2024/01/02 19:57:39;;;;;;;16.40;7.55;;;;;;;;;;5107191;28;20144;-73
2024/01/02 20:01:16;;;;;;;13.43;7.68;;;;;;;;;;5127847;28;20027;-72
2024/01/02 20:52:43;;;;;;;10.77;5.18;;;;;;;;;;5108033;28;20435;-72
